PWSweather.com
Personal Weather Stations
Station Observations
MENWDWX1
Menstrie, ScotlandGB

MenstrieScotlandGB

Lat: 56.148322, Lon: -3.85483

Elevation: 62

Station Type: Davis Vantage Pro 2

High Low Average
Temperature 44.4°F6.9°C 33.6°F0.9°C 39.8°F4.3°C
Dew Point 33.3°F0.7°C 27.5°F-2.5°C 31.2°F-0.4°C
Winds 19.6 mph 31.5 kmh Calm Calm 10.0 mph W16.1 kmh W
Wind Gusts 33.4 mph53.8 kmh 1.2 mph1.9 kmh 15.0 mph24.1 kmh
Humidity 78% 63% 71%
Pressure 29.81 in1009.5 mb 29.34 in993.6 mb -
Precipitation 0.00 in0.0 mm - -
Hour Temp Dew Point Humidity Winds Wind Gusts Pressure Precip Precip Rate Daily Precip Total
12:00 AM 36.8°F2.7°C 29.9°F-1.2°C 76% 10.4 mph WNW16.7 kmh WNW 11.5 mph18.5 kmh 29.34 in993.6 mb - 0.00 in0.0 mm 0.00 in0.0 mm
12:05 AM 36.6°F2.6°C 29.7°F-1.3°C 76% 11.5 mph NW18.5 kmh NW 12.7 mph20.4 kmh 29.34 in993.6 mb - 0.00 in0.0 mm 0.00 in0.0 mm
12:10 AM 36.4°F2.4°C 29.9°F-1.2°C 77% 6.9 mph NW11.1 kmh NW 11.5 mph18.5 kmh 29.34 in993.6 mb - 0.00 in0.0 mm 0.00 in0.0 mm
12:15 AM 36.3°F2.4°C 29.8°F-1.2°C 77% 5.8 mph WNW9.3 kmh WNW 10.4 mph16.7 kmh 29.34 in993.6 mb - 0.00 in0.0 mm 0.00 in0.0 mm
12:20 AM 36.2°F2.3°C 29.7°F-1.3°C 77% 3.5 mph WNW5.6 kmh WNW 6.9 mph11.1 kmh 29.34 in993.6 mb - 0.00 in0.0 mm 0.00 in0.0 mm
12:25 AM 36.1°F2.3°C 29.6°F-1.3°C 77% 4.6 mph WNW7.4 kmh WNW 8.1 mph13.0 kmh 29.34 in993.6 mb - 0.00 in0.0 mm 0.00 in0.0 mm
12:30 AM 35.9°F2.2°C 29.4°F-1.4°C 77% 3.5 mph NW5.6 kmh NW 6.9 mph11.1 kmh 29.35 in993.9 mb - 0.00 in0.0 mm 0.00 in0.0 mm
12:35 AM 35.7°F2.1°C 29.2°F-1.6°C 77% 4.6 mph NW7.4 kmh NW 8.1 mph13.0 kmh 29.35 in993.9 mb - 0.00 in0.0 mm 0.00 in0.0 mm
12:40 AM 35.9°F2.2°C 29.4°F-1.4°C 77% 5.8 mph NW9.3 kmh NW 8.1 mph13.0 kmh 29.35 in993.9 mb - 0.00 in0.0 mm 0.00 in0.0 mm
12:45 AM 35.8°F2.1°C 29.3°F-1.5°C 77% 3.5 mph NW5.6 kmh NW 5.8 mph9.3 kmh 29.35 in993.9 mb - 0.00 in0.0 mm 0.00 in0.0 mm
12:50 AM 35.5°F1.9°C 29.0°F-1.7°C 77% 3.5 mph WNW5.6 kmh WNW 3.5 mph5.6 kmh 29.35 in993.9 mb - 0.00 in0.0 mm 0.00 in0.0 mm
12:55 AM 35.2°F1.8°C 28.7°F-1.8°C 77% 2.3 mph WNW3.7 kmh WNW 2.3 mph3.7 kmh 29.35 in993.9 mb - 0.00 in0.0 mm 0.00 in0.0 mm
01:00 AM 35.0°F1.7°C 28.5°F-1.9°C 77% 2.3 mph NW3.7 kmh NW 2.3 mph3.7 kmh 29.35 in993.9 mb - 0.00 in0.0 mm 0.00 in0.0 mm
01:05 AM 34.8°F1.6°C 28.3°F-2.1°C 77% 3.5 mph NW5.6 kmh NW 4.6 mph7.4 kmh 29.35 in993.9 mb - 0.00 in0.0 mm 0.00 in0.0 mm
01:10 AM 34.7°F1.5°C 28.5°F-1.9°C 78% Calm Calm 2.3 mph3.7 kmh 29.35 in993.9 mb - 0.00 in0.0 mm 0.00 in0.0 mm
01:15 AM 34.6°F1.4°C 28.4°F-2.0°C 78% 1.2 mph NW1.9 kmh NW 1.2 mph1.9 kmh 29.35 in993.9 mb - 0.00 in0.0 mm 0.00 in0.0 mm
01:20 AM 34.4°F1.3°C 28.2°F-2.1°C 78% 1.2 mph NW1.9 kmh NW 2.3 mph3.7 kmh 29.35 in993.9 mb - 0.00 in0.0 mm 0.00 in0.0 mm
01:25 AM 34.2°F1.2°C 28.1°F-2.2°C 78% 2.3 mph WSW3.7 kmh WSW 3.5 mph5.6 kmh 29.35 in993.9 mb - 0.00 in0.0 mm 0.00 in0.0 mm
01:30 AM 34.0°F1.1°C 27.8°F-2.3°C 78% 2.3 mph WSW3.7 kmh WSW 3.5 mph5.6 kmh 29.35 in993.9 mb - 0.00 in0.0 mm 0.00 in0.0 mm
01:35 AM 33.7°F0.9°C 27.6°F-2.4°C 78% 3.5 mph WSW5.6 kmh WSW 4.6 mph7.4 kmh 29.36 in994.2 mb - 0.00 in0.0 mm 0.00 in0.0 mm
01:40 AM 33.7°F0.9°C 27.5°F-2.5°C 78% 2.3 mph W3.7 kmh W 3.5 mph5.6 kmh 29.36 in994.2 mb - 0.00 in0.0 mm 0.00 in0.0 mm
01:45 AM 33.6°F0.9°C 27.5°F-2.5°C 78% 2.3 mph W3.7 kmh W 3.5 mph5.6 kmh 29.36 in994.2 mb - 0.00 in0.0 mm 0.00 in0.0 mm
01:50 AM 33.9°F1.1°C 27.7°F-2.4°C 78% 4.6 mph W7.4 kmh W 4.6 mph7.4 kmh 29.36 in994.2 mb - 0.00 in0.0 mm 0.00 in0.0 mm
01:55 AM 34.2°F1.2°C 28.0°F-2.2°C 78% 3.5 mph W5.6 kmh W 8.1 mph13.0 kmh 29.36 in994.2 mb - 0.00 in0.0 mm 0.00 in0.0 mm
02:00 AM 34.5°F1.4°C 28.4°F-2.0°C 78% 4.6 mph W7.4 kmh W 10.4 mph16.7 kmh 29.36 in994.2 mb - 0.00 in0.0 mm 0.00 in0.0 mm
02:05 AM 35.0°F1.7°C 28.5°F-1.9°C 77% 6.9 mph W11.1 kmh W 10.4 mph16.7 kmh 29.36 in994.2 mb - 0.00 in0.0 mm 0.00 in0.0 mm
02:10 AM 35.6°F2.0°C 29.1°F-1.6°C 77% 8.1 mph WNW13.0 kmh WNW 13.8 mph22.2 kmh 29.37 in994.6 mb - 0.00 in0.0 mm 0.00 in0.0 mm
02:15 AM 35.9°F2.2°C 29.4°F-1.4°C 77% 9.2 mph W14.8 kmh W 11.5 mph18.5 kmh 29.37 in994.6 mb - 0.00 in0.0 mm 0.00 in0.0 mm
02:20 AM 36.1°F2.3°C 29.6°F-1.3°C 77% 10.4 mph W16.7 kmh W 13.8 mph22.2 kmh 29.38 in994.9 mb - 0.00 in0.0 mm 0.00 in0.0 mm
02:25 AM 36.4°F2.4°C 29.5°F-1.4°C 76% 11.5 mph W18.5 kmh W 11.5 mph18.5 kmh 29.38 in994.9 mb - 0.00 in0.0 mm 0.00 in0.0 mm
02:30 AM 36.7°F2.6°C 29.9°F-1.2°C 76% 8.1 mph WNW13.0 kmh WNW 11.5 mph18.5 kmh 29.37 in994.6 mb - 0.00 in0.0 mm 0.00 in0.0 mm
02:35 AM 36.6°F2.6°C 29.7°F-1.3°C 76% 9.2 mph NW14.8 kmh NW 12.7 mph20.4 kmh 29.38 in994.9 mb - 0.00 in0.0 mm 0.00 in0.0 mm
02:40 AM 36.4°F2.4°C 29.5°F-1.4°C 76% 8.1 mph W13.0 kmh W 11.5 mph18.5 kmh 29.38 in994.9 mb - 0.00 in0.0 mm 0.00 in0.0 mm
02:45 AM 36.4°F2.4°C 29.9°F-1.2°C 77% 5.8 mph WNW9.3 kmh WNW 8.1 mph13.0 kmh 29.37 in994.6 mb - 0.00 in0.0 mm 0.00 in0.0 mm
02:50 AM 36.2°F2.3°C 29.7°F-1.3°C 77% 6.9 mph W11.1 kmh W 10.4 mph16.7 kmh 29.38 in994.9 mb - 0.00 in0.0 mm 0.00 in0.0 mm
02:55 AM 36.0°F2.2°C 29.5°F-1.4°C 77% 5.8 mph W9.3 kmh W 6.9 mph11.1 kmh 29.38 in994.9 mb - 0.00 in0.0 mm 0.00 in0.0 mm
03:00 AM 35.7°F2.1°C 29.2°F-1.6°C 77% 4.6 mph WSW7.4 kmh WSW 8.1 mph13.0 kmh 29.38 in994.9 mb - 0.00 in0.0 mm 0.00 in0.0 mm
03:05 AM 35.2°F1.8°C 28.7°F-1.8°C 77% 6.9 mph W11.1 kmh W 11.5 mph18.5 kmh 29.38 in994.9 mb - 0.00 in0.0 mm 0.00 in0.0 mm
03:10 AM 35.1°F1.7°C 29.0°F-1.7°C 78% 6.9 mph W11.1 kmh W 10.4 mph16.7 kmh 29.38 in994.9 mb - 0.00 in0.0 mm 0.00 in0.0 mm
03:15 AM 35.2°F1.8°C 29.0°F-1.7°C 78% 8.1 mph WSW13.0 kmh WSW 10.4 mph16.7 kmh 29.38 in994.9 mb - 0.00 in0.0 mm 0.00 in0.0 mm
03:20 AM 34.9°F1.6°C 28.4°F-2.0°C 77% 6.9 mph W11.1 kmh W 10.4 mph16.7 kmh 29.38 in994.9 mb - 0.00 in0.0 mm 0.00 in0.0 mm
03:25 AM 34.9°F1.6°C 28.7°F-1.8°C 78% 8.1 mph W13.0 kmh W 13.8 mph22.2 kmh 29.38 in994.9 mb - 0.00 in0.0 mm 0.00 in0.0 mm
03:30 AM 35.4°F1.9°C 29.3°F-1.5°C 78% 9.2 mph WNW14.8 kmh WNW 12.7 mph20.4 kmh 29.38 in994.9 mb - 0.00 in0.0 mm 0.00 in0.0 mm
03:35 AM 35.8°F2.1°C 29.3°F-1.5°C 77% 10.4 mph WNW16.7 kmh WNW 12.7 mph20.4 kmh 29.38 in994.9 mb - 0.00 in0.0 mm 0.00 in0.0 mm
03:40 AM 36.1°F2.3°C 29.6°F-1.3°C 77% 9.2 mph WNW14.8 kmh WNW 11.5 mph18.5 kmh 29.38 in994.9 mb - 0.00 in0.0 mm 0.00 in0.0 mm
03:45 AM 36.4°F2.4°C 29.8°F-1.2°C 77% 8.1 mph W13.0 kmh W 16.1 mph25.9 kmh 29.38 in994.9 mb - 0.00 in0.0 mm 0.00 in0.0 mm
03:50 AM 36.6°F2.6°C 29.7°F-1.3°C 76% 11.5 mph WNW18.5 kmh WNW 16.1 mph25.9 kmh 29.38 in994.9 mb - 0.00 in0.0 mm 0.00 in0.0 mm
03:55 AM 36.5°F2.5°C 29.7°F-1.3°C 76% 6.9 mph WNW11.1 kmh WNW 10.4 mph16.7 kmh 29.38 in994.9 mb - 0.00 in0.0 mm 0.00 in0.0 mm
04:00 AM 36.4°F2.4°C 29.9°F-1.2°C 77% 9.2 mph WNW14.8 kmh WNW 11.5 mph18.5 kmh 29.39 in995.3 mb - 0.00 in0.0 mm 0.00 in0.0 mm
04:05 AM 36.4°F2.4°C 29.9°F-1.2°C 77% 11.5 mph W18.5 kmh W 16.1 mph25.9 kmh 29.39 in995.3 mb - 0.00 in0.0 mm 0.00 in0.0 mm
04:10 AM 36.5°F2.5°C 30.0°F-1.1°C 77% 8.1 mph WNW13.0 kmh WNW 13.8 mph22.2 kmh 29.39 in995.3 mb - 0.00 in0.0 mm 0.00 in0.0 mm
04:15 AM 36.3°F2.4°C 29.8°F-1.2°C 77% 12.7 mph WNW20.4 kmh WNW 17.3 mph27.8 kmh 29.39 in995.3 mb - 0.00 in0.0 mm 0.00 in0.0 mm
04:20 AM 36.2°F2.3°C 29.7°F-1.3°C 77% 8.1 mph W13.0 kmh W 11.5 mph18.5 kmh 29.39 in995.3 mb - 0.00 in0.0 mm 0.00 in0.0 mm
04:25 AM 36.2°F2.3°C 29.7°F-1.3°C 77% 9.2 mph W14.8 kmh W 13.8 mph22.2 kmh 29.39 in995.3 mb - 0.00 in0.0 mm 0.00 in0.0 mm
04:30 AM 36.3°F2.4°C 29.8°F-1.2°C 77% 9.2 mph W14.8 kmh W 11.5 mph18.5 kmh 29.39 in995.3 mb - 0.00 in0.0 mm 0.00 in0.0 mm
04:35 AM 36.4°F2.4°C 29.6°F-1.3°C 76% 10.4 mph W16.7 kmh W 15.0 mph24.1 kmh 29.39 in995.3 mb - 0.00 in0.0 mm 0.00 in0.0 mm
04:40 AM 36.7°F2.6°C 29.8°F-1.2°C 76% 10.4 mph W16.7 kmh W 15.0 mph24.1 kmh 29.40 in995.6 mb - 0.00 in0.0 mm 0.00 in0.0 mm
04:45 AM 36.9°F2.7°C 29.7°F-1.3°C 75% 10.4 mph W16.7 kmh W 15.0 mph24.1 kmh 29.40 in995.6 mb - 0.00 in0.0 mm 0.00 in0.0 mm
04:50 AM 36.9°F2.7°C 29.7°F-1.3°C 75% 10.4 mph WNW16.7 kmh WNW 15.0 mph24.1 kmh 29.40 in995.6 mb - 0.00 in0.0 mm 0.00 in0.0 mm
04:55 AM 36.9°F2.7°C 30.0°F-1.1°C 76% 11.5 mph W18.5 kmh W 17.3 mph27.8 kmh 29.40 in995.6 mb - 0.00 in0.0 mm 0.00 in0.0 mm
05:00 AM 37.0°F2.8°C 30.1°F-1.1°C 76% 10.4 mph WNW16.7 kmh WNW 13.8 mph22.2 kmh 29.40 in995.6 mb - 0.00 in0.0 mm 0.00 in0.0 mm
05:05 AM 37.1°F2.8°C 30.2°F-1.0°C 76% 9.2 mph NW14.8 kmh NW 12.7 mph20.4 kmh 29.39 in995.3 mb - 0.00 in0.0 mm 0.00 in0.0 mm
05:10 AM 36.9°F2.7°C 30.0°F-1.1°C 76% 8.1 mph WNW13.0 kmh WNW 12.7 mph20.4 kmh 29.40 in995.6 mb - 0.00 in0.0 mm 0.00 in0.0 mm
05:15 AM 36.7°F2.6°C 29.8°F-1.2°C 76% 6.9 mph WNW11.1 kmh WNW 9.2 mph14.8 kmh 29.40 in995.6 mb - 0.00 in0.0 mm 0.00 in0.0 mm
05:20 AM 36.6°F2.6°C 29.7°F-1.3°C 76% 10.4 mph WNW16.7 kmh WNW 11.5 mph18.5 kmh 29.40 in995.6 mb - 0.00 in0.0 mm 0.00 in0.0 mm
05:25 AM 36.5°F2.5°C 29.7°F-1.3°C 76% 10.4 mph W16.7 kmh W 13.8 mph22.2 kmh 29.40 in995.6 mb - 0.00 in0.0 mm 0.00 in0.0 mm
05:30 AM 36.5°F2.5°C 29.7°F-1.3°C 76% 8.1 mph WNW13.0 kmh WNW 9.2 mph14.8 kmh 29.40 in995.6 mb - 0.00 in0.0 mm 0.00 in0.0 mm
05:35 AM 36.3°F2.4°C 29.8°F-1.2°C 77% 10.4 mph W16.7 kmh W 17.3 mph27.8 kmh 29.40 in995.6 mb - 0.00 in0.0 mm 0.00 in0.0 mm
05:40 AM 36.5°F2.5°C 29.6°F-1.3°C 76% 11.5 mph W18.5 kmh W 17.3 mph27.8 kmh 29.40 in995.6 mb - 0.00 in0.0 mm 0.00 in0.0 mm
05:45 AM 36.5°F2.5°C 29.7°F-1.3°C 76% 11.5 mph WNW18.5 kmh WNW 17.3 mph27.8 kmh 29.41 in995.9 mb - 0.00 in0.0 mm 0.00 in0.0 mm
05:50 AM 36.5°F2.5°C 29.7°F-1.3°C 76% 9.2 mph W14.8 kmh W 17.3 mph27.8 kmh 29.41 in995.9 mb - 0.00 in0.0 mm 0.00 in0.0 mm
05:55 AM 36.6°F2.6°C 29.7°F-1.3°C 76% 12.7 mph WNW20.4 kmh WNW 17.3 mph27.8 kmh 29.41 in995.9 mb - 0.00 in0.0 mm 0.00 in0.0 mm
06:00 AM 36.7°F2.6°C 29.9°F-1.2°C 76% 12.7 mph W20.4 kmh W 19.6 mph31.5 kmh 29.41 in995.9 mb - 0.00 in0.0 mm 0.00 in0.0 mm
06:05 AM 37.2°F2.9°C 30.0°F-1.1°C 75% 10.4 mph WNW16.7 kmh WNW 12.7 mph20.4 kmh 29.41 in995.9 mb - 0.00 in0.0 mm 0.00 in0.0 mm
06:10 AM 37.3°F2.9°C 29.8°F-1.2°C 74% 15.0 mph NW24.1 kmh NW 20.7 mph33.3 kmh 29.41 in995.9 mb - 0.00 in0.0 mm 0.00 in0.0 mm
06:15 AM 37.4°F3.0°C 29.5°F-1.4°C 73% 15.0 mph NW24.1 kmh NW 19.6 mph31.5 kmh 29.41 in995.9 mb - 0.00 in0.0 mm 0.00 in0.0 mm
06:20 AM 37.5°F3.1°C 29.6°F-1.3°C 73% 13.8 mph WNW22.2 kmh WNW 19.6 mph31.5 kmh 29.41 in995.9 mb - 0.00 in0.0 mm 0.00 in0.0 mm
06:25 AM 37.4°F3.0°C 29.5°F-1.4°C 73% 16.1 mph NW25.9 kmh NW 20.7 mph33.3 kmh 29.41 in995.9 mb - 0.00 in0.0 mm 0.00 in0.0 mm
06:30 AM 37.3°F2.9°C 29.4°F-1.4°C 73% 9.2 mph W14.8 kmh W 16.1 mph25.9 kmh 29.42 in996.3 mb - 0.00 in0.0 mm 0.00 in0.0 mm
06:35 AM 37.2°F2.9°C 29.7°F-1.3°C 74% 8.1 mph WNW13.0 kmh WNW 13.8 mph22.2 kmh 29.42 in996.3 mb - 0.00 in0.0 mm 0.00 in0.0 mm
06:40 AM 37.1°F2.8°C 29.6°F-1.3°C 74% 9.2 mph WNW14.8 kmh WNW 13.8 mph22.2 kmh 29.42 in996.3 mb - 0.00 in0.0 mm 0.00 in0.0 mm
06:45 AM 37.1°F2.8°C 29.9°F-1.2°C 75% 9.2 mph W14.8 kmh W 13.8 mph22.2 kmh 29.43 in996.6 mb - 0.00 in0.0 mm 0.00 in0.0 mm
06:50 AM 37.4°F3.0°C 30.2°F-1.0°C 75% 10.4 mph W16.7 kmh W 18.4 mph29.6 kmh 29.43 in996.6 mb - 0.00 in0.0 mm 0.00 in0.0 mm
06:55 AM 37.5°F3.1°C 30.3°F-0.9°C 75% 11.5 mph WNW18.5 kmh WNW 17.3 mph27.8 kmh 29.43 in996.6 mb - 0.00 in0.0 mm 0.00 in0.0 mm
07:00 AM 37.4°F3.0°C 30.2°F-1.0°C 75% 10.4 mph W16.7 kmh W 11.5 mph18.5 kmh 29.43 in996.6 mb - 0.00 in0.0 mm 0.00 in0.0 mm
07:05 AM 37.3°F2.9°C 30.1°F-1.1°C 75% 11.5 mph W18.5 kmh W 15.0 mph24.1 kmh 29.43 in996.6 mb - 0.00 in0.0 mm 0.00 in0.0 mm
07:10 AM 37.3°F2.9°C 30.4°F-0.9°C 76% 13.8 mph W22.2 kmh W 17.3 mph27.8 kmh 29.44 in997.0 mb - 0.00 in0.0 mm 0.00 in0.0 mm
07:15 AM 37.3°F2.9°C 30.4°F-0.9°C 76% 13.8 mph WSW22.2 kmh WSW 19.6 mph31.5 kmh 29.44 in997.0 mb - 0.00 in0.0 mm 0.00 in0.0 mm
07:20 AM 37.4°F3.0°C 30.2°F-1.0°C 75% 12.7 mph WSW20.4 kmh WSW 19.6 mph31.5 kmh 29.44 in997.0 mb - 0.00 in0.0 mm 0.00 in0.0 mm
07:25 AM 37.6°F3.1°C 30.4°F-0.9°C 75% 12.7 mph W20.4 kmh W 16.1 mph25.9 kmh 29.45 in997.3 mb - 0.00 in0.0 mm 0.00 in0.0 mm
07:30 AM 37.6°F3.1°C 30.4°F-0.9°C 75% 12.7 mph W20.4 kmh W 13.8 mph22.2 kmh 29.44 in997.0 mb - 0.00 in0.0 mm 0.00 in0.0 mm
07:35 AM 37.5°F3.1°C 30.3°F-0.9°C 75% 13.8 mph W22.2 kmh W 18.4 mph29.6 kmh 29.45 in997.3 mb - 0.00 in0.0 mm 0.00 in0.0 mm
07:40 AM 37.7°F3.2°C 30.5°F-0.8°C 75% 11.5 mph W18.5 kmh W 20.7 mph33.3 kmh 29.45 in997.3 mb - 0.00 in0.0 mm 0.00 in0.0 mm
07:45 AM 37.9°F3.3°C 30.7°F-0.7°C 75% 11.5 mph W18.5 kmh W 15.0 mph24.1 kmh 29.46 in997.6 mb - 0.00 in0.0 mm 0.00 in0.0 mm
07:50 AM 38.0°F3.3°C 30.4°F-0.9°C 74% 13.8 mph W22.2 kmh W 17.3 mph27.8 kmh 29.46 in997.6 mb - 0.00 in0.0 mm 0.00 in0.0 mm
07:55 AM 38.2°F3.4°C 30.6°F-0.8°C 74% 15.0 mph W24.1 kmh W 19.6 mph31.5 kmh 29.46 in997.6 mb - 0.00 in0.0 mm 0.00 in0.0 mm
08:00 AM 38.4°F3.6°C 30.5°F-0.8°C 73% 12.7 mph W20.4 kmh W 17.3 mph27.8 kmh 29.46 in997.6 mb - 0.00 in0.0 mm 0.00 in0.0 mm
08:05 AM 38.5°F3.6°C 30.6°F-0.8°C 73% 12.7 mph WSW20.4 kmh WSW 13.8 mph22.2 kmh 29.46 in997.6 mb - 0.00 in0.0 mm 0.00 in0.0 mm
08:10 AM 38.6°F3.7°C 30.7°F-0.7°C 73% 8.1 mph W13.0 kmh W 11.5 mph18.5 kmh 29.47 in998.0 mb - 0.00 in0.0 mm 0.00 in0.0 mm
08:15 AM 38.4°F3.6°C 30.5°F-0.8°C 73% 11.5 mph W18.5 kmh W 17.3 mph27.8 kmh 29.47 in998.0 mb - 0.00 in0.0 mm 0.00 in0.0 mm
08:20 AM 38.4°F3.6°C 30.5°F-0.8°C 73% 6.9 mph W11.1 kmh W 11.5 mph18.5 kmh 29.48 in998.3 mb - 0.00 in0.0 mm 0.00 in0.0 mm
08:25 AM 38.6°F3.7°C 30.7°F-0.7°C 73% 10.4 mph WSW16.7 kmh WSW 16.1 mph25.9 kmh 29.48 in998.3 mb - 0.00 in0.0 mm 0.00 in0.0 mm
08:30 AM 38.8°F3.8°C 30.5°F-0.8°C 72% 12.7 mph W20.4 kmh W 24.2 mph38.9 kmh 29.48 in998.3 mb - 0.00 in0.0 mm 0.00 in0.0 mm
08:35 AM 39.1°F3.9°C 30.8°F-0.7°C 72% 15.0 mph W24.1 kmh W 19.6 mph31.5 kmh 29.48 in998.3 mb - 0.00 in0.0 mm 0.00 in0.0 mm
08:40 AM 39.1°F3.9°C 30.8°F-0.7°C 72% 12.7 mph W20.4 kmh W 17.3 mph27.8 kmh 29.48 in998.3 mb - 0.00 in0.0 mm 0.00 in0.0 mm
08:45 AM 38.8°F3.8°C 30.6°F-0.8°C 72% 13.8 mph W22.2 kmh W 18.4 mph29.6 kmh 29.48 in998.3 mb - 0.00 in0.0 mm 0.00 in0.0 mm
08:50 AM 38.9°F3.8°C 30.6°F-0.8°C 72% 10.4 mph W16.7 kmh W 15.0 mph24.1 kmh 29.49 in998.6 mb - 0.00 in0.0 mm 0.00 in0.0 mm
08:55 AM 38.8°F3.8°C 30.5°F-0.8°C 72% 10.4 mph W16.7 kmh W 17.3 mph27.8 kmh 29.49 in998.6 mb - 0.00 in0.0 mm 0.00 in0.0 mm
09:00 AM 38.8°F3.8°C 30.6°F-0.8°C 72% 12.7 mph W20.4 kmh W 16.1 mph25.9 kmh 29.49 in998.6 mb - 0.00 in0.0 mm 0.00 in0.0 mm
09:05 AM 38.9°F3.8°C 30.7°F-0.7°C 72% 12.7 mph W20.4 kmh W 19.6 mph31.5 kmh 29.50 in999.0 mb - 0.00 in0.0 mm 0.00 in0.0 mm
09:10 AM 38.9°F3.8°C 30.7°F-0.7°C 72% 12.7 mph W20.4 kmh W 19.6 mph31.5 kmh 29.50 in999.0 mb - 0.00 in0.0 mm 0.00 in0.0 mm
09:15 AM 39.2°F4.0°C 30.6°F-0.8°C 71% 12.7 mph W20.4 kmh W 21.9 mph35.2 kmh 29.49 in998.6 mb - 0.00 in0.0 mm 0.00 in0.0 mm
09:20 AM 39.6°F4.2°C 31.0°F-0.6°C 71% 13.8 mph W22.2 kmh W 19.6 mph31.5 kmh 29.49 in998.6 mb - 0.00 in0.0 mm 0.00 in0.0 mm
09:25 AM 39.7°F4.3°C 30.7°F-0.7°C 70% 16.1 mph WNW25.9 kmh WNW 23.0 mph37.0 kmh 29.50 in999.0 mb - 0.00 in0.0 mm 0.00 in0.0 mm
09:30 AM 40.2°F4.6°C 30.8°F-0.7°C 69% 16.1 mph WNW25.9 kmh WNW 26.5 mph42.6 kmh 29.50 in999.0 mb - 0.00 in0.0 mm 0.00 in0.0 mm
09:35 AM 40.3°F4.6°C 30.9°F-0.6°C 69% 12.7 mph WNW20.4 kmh WNW 18.4 mph29.6 kmh 29.50 in999.0 mb - 0.00 in0.0 mm 0.00 in0.0 mm
09:40 AM 40.4°F4.7°C 30.7°F-0.7°C 68% 11.5 mph W18.5 kmh W 19.6 mph31.5 kmh 29.50 in999.0 mb - 0.00 in0.0 mm 0.00 in0.0 mm
09:45 AM 40.5°F4.7°C 30.8°F-0.7°C 68% 13.8 mph W22.2 kmh W 17.3 mph27.8 kmh 29.50 in999.0 mb - 0.00 in0.0 mm 0.00 in0.0 mm
09:50 AM 40.6°F4.8°C 30.5°F-0.8°C 67% 15.0 mph W24.1 kmh W 21.9 mph35.2 kmh 29.50 in999.0 mb - 0.00 in0.0 mm 0.00 in0.0 mm
09:55 AM 40.6°F4.8°C 30.9°F-0.6°C 68% 12.7 mph W20.4 kmh W 18.4 mph29.6 kmh 29.51 in999.3 mb - 0.00 in0.0 mm 0.00 in0.0 mm
10:00 AM 40.6°F4.8°C 30.9°F-0.6°C 68% 13.8 mph W22.2 kmh W 16.1 mph25.9 kmh 29.51 in999.3 mb - 0.00 in0.0 mm 0.00 in0.0 mm
10:05 AM 40.8°F4.9°C 31.1°F-0.5°C 68% 17.3 mph WNW27.8 kmh WNW 26.5 mph42.6 kmh 29.51 in999.3 mb - 0.00 in0.0 mm 0.00 in0.0 mm
10:10 AM 40.9°F4.9°C 31.1°F-0.5°C 68% 11.5 mph WSW18.5 kmh WSW 17.3 mph27.8 kmh 29.52 in999.7 mb - 0.00 in0.0 mm 0.00 in0.0 mm
10:15 AM 41.1°F5.1°C 31.3°F-0.4°C 68% 11.5 mph W18.5 kmh W 21.9 mph35.2 kmh 29.52 in999.7 mb - 0.00 in0.0 mm 0.00 in0.0 mm
10:20 AM 41.2°F5.1°C 31.4°F-0.3°C 68% 8.1 mph W13.0 kmh W 13.8 mph22.2 kmh 29.53 in1000.0 mb - 0.00 in0.0 mm 0.00 in0.0 mm
10:25 AM 41.2°F5.1°C 31.4°F-0.3°C 68% 9.2 mph NW14.8 kmh NW 11.5 mph18.5 kmh 29.53 in1000.0 mb - 0.00 in0.0 mm 0.00 in0.0 mm
10:30 AM 41.1°F5.1°C 31.7°F-0.2°C 69% 8.1 mph NW13.0 kmh NW 11.5 mph18.5 kmh 29.53 in1000.0 mb - 0.00 in0.0 mm 0.00 in0.0 mm
10:35 AM 41.2°F5.1°C 31.8°F-0.1°C 69% 8.1 mph NW13.0 kmh NW 16.1 mph25.9 kmh 29.53 in1000.0 mb - 0.00 in0.0 mm 0.00 in0.0 mm
10:40 AM 41.2°F5.1°C 31.8°F-0.1°C 69% 6.9 mph NW11.1 kmh NW 10.4 mph16.7 kmh 29.54 in1000.3 mb - 0.00 in0.0 mm 0.00 in0.0 mm
10:45 AM 41.3°F5.2°C 31.9°F-0.1°C 69% 5.8 mph W9.3 kmh W 6.9 mph11.1 kmh 29.55 in1000.7 mb - 0.00 in0.0 mm 0.00 in0.0 mm
10:50 AM 41.4°F5.2°C 32.0°F0.0°C 69% 6.9 mph W11.1 kmh W 11.5 mph18.5 kmh 29.55 in1000.7 mb - 0.00 in0.0 mm 0.00 in0.0 mm
10:55 AM 41.4°F5.2°C 32.0°F0.0°C 69% 8.1 mph NW13.0 kmh NW 11.5 mph18.5 kmh 29.55 in1000.7 mb - 0.00 in0.0 mm 0.00 in0.0 mm
11:00 AM 41.4°F5.2°C 32.0°F0.0°C 69% 6.9 mph WNW11.1 kmh WNW 8.1 mph13.0 kmh 29.55 in1000.7 mb - 0.00 in0.0 mm 0.00 in0.0 mm
11:05 AM 41.4°F5.2°C 32.3°F0.2°C 70% 9.2 mph WNW14.8 kmh WNW 16.1 mph25.9 kmh 29.55 in1000.7 mb - 0.00 in0.0 mm 0.00 in0.0 mm
11:10 AM 41.5°F5.3°C 32.1°F0.1°C 69% 11.5 mph NW18.5 kmh NW 18.4 mph29.6 kmh 29.55 in1000.7 mb - 0.00 in0.0 mm 0.00 in0.0 mm
11:15 AM 41.6°F5.3°C 32.2°F0.1°C 69% 9.2 mph WNW14.8 kmh WNW 11.5 mph18.5 kmh 29.56 in1001.0 mb - 0.00 in0.0 mm 0.00 in0.0 mm
11:20 AM 41.7°F5.4°C 32.3°F0.2°C 69% 11.5 mph NW18.5 kmh NW 17.3 mph27.8 kmh 29.56 in1001.0 mb - 0.00 in0.0 mm 0.00 in0.0 mm
11:25 AM 41.8°F5.4°C 32.4°F0.2°C 69% 11.5 mph WNW18.5 kmh WNW 19.6 mph31.5 kmh 29.56 in1001.0 mb - 0.00 in0.0 mm 0.00 in0.0 mm
11:30 AM 41.8°F5.4°C 32.4°F0.2°C 69% 15.0 mph N24.1 kmh N 21.9 mph35.2 kmh 29.56 in1001.0 mb - 0.00 in0.0 mm 0.00 in0.0 mm
11:35 AM 41.9°F5.5°C 32.1°F0.1°C 68% 13.8 mph NW22.2 kmh NW 20.7 mph33.3 kmh 29.57 in1001.4 mb - 0.00 in0.0 mm 0.00 in0.0 mm
11:40 AM 42.1°F5.6°C 32.3°F0.2°C 68% 16.1 mph NNW25.9 kmh NNW 23.0 mph37.0 kmh 29.56 in1001.0 mb - 0.00 in0.0 mm 0.00 in0.0 mm
11:45 AM 42.1°F5.6°C 32.3°F0.2°C 68% 9.2 mph NW14.8 kmh NW 16.1 mph25.9 kmh 29.56 in1001.0 mb - 0.00 in0.0 mm 0.00 in0.0 mm
11:50 AM 42.2°F5.7°C 32.4°F0.2°C 68% 11.5 mph NW18.5 kmh NW 16.1 mph25.9 kmh 29.56 in1001.0 mb - 0.00 in0.0 mm 0.00 in0.0 mm
11:55 AM 42.2°F5.7°C 32.0°F0.0°C 67% 17.3 mph NNW27.8 kmh NNW 33.4 mph53.8 kmh 29.57 in1001.4 mb - 0.00 in0.0 mm 0.00 in0.0 mm
12:00 PM 42.1°F5.6°C 31.9°F-0.1°C 67% 17.3 mph NW27.8 kmh NW 27.6 mph44.4 kmh 29.56 in1001.0 mb - 0.00 in0.0 mm 0.00 in0.0 mm
12:05 PM 42.1°F5.6°C 31.9°F-0.1°C 67% 11.5 mph NW18.5 kmh NW 20.7 mph33.3 kmh 29.57 in1001.4 mb - 0.00 in0.0 mm 0.00 in0.0 mm
12:10 PM 42.2°F5.7°C 32.0°F0.0°C 67% 5.8 mph W9.3 kmh W 10.4 mph16.7 kmh 29.57 in1001.4 mb - 0.00 in0.0 mm 0.00 in0.0 mm
12:15 PM 42.2°F5.7°C 32.4°F0.2°C 68% 13.8 mph NW22.2 kmh NW 18.4 mph29.6 kmh 29.58 in1001.7 mb - 0.00 in0.0 mm 0.00 in0.0 mm
12:20 PM 42.2°F5.7°C 32.4°F0.2°C 68% 6.9 mph WNW11.1 kmh WNW 12.7 mph20.4 kmh 29.57 in1001.4 mb - 0.00 in0.0 mm 0.00 in0.0 mm
12:25 PM 42.2°F5.7°C 32.4°F0.2°C 68% 6.9 mph W11.1 kmh W 13.8 mph22.2 kmh 29.58 in1001.7 mb - 0.00 in0.0 mm 0.00 in0.0 mm
12:30 PM 42.2°F5.7°C 32.4°F0.2°C 68% 11.5 mph WSW18.5 kmh WSW 15.0 mph24.1 kmh 29.58 in1001.7 mb - 0.00 in0.0 mm 0.00 in0.0 mm
12:35 PM 42.3°F5.7°C 32.5°F0.3°C 68% 6.9 mph SW11.1 kmh SW 11.5 mph18.5 kmh 29.59 in1002.0 mb - 0.00 in0.0 mm 0.00 in0.0 mm
12:40 PM 42.3°F5.7°C 32.5°F0.3°C 68% 3.5 mph N5.6 kmh N 8.1 mph13.0 kmh 29.59 in1002.0 mb - 0.00 in0.0 mm 0.00 in0.0 mm
12:45 PM 42.3°F5.7°C 32.5°F0.3°C 68% 11.5 mph WSW18.5 kmh WSW 16.1 mph25.9 kmh 29.59 in1002.0 mb - 0.00 in0.0 mm 0.00 in0.0 mm
12:50 PM 42.3°F5.7°C 32.5°F0.3°C 68% 4.6 mph SW7.4 kmh SW 10.4 mph16.7 kmh 29.59 in1002.0 mb - 0.00 in0.0 mm 0.00 in0.0 mm
12:55 PM 42.3°F5.7°C 32.5°F0.3°C 68% 8.1 mph NW13.0 kmh NW 10.4 mph16.7 kmh 29.60 in1002.4 mb - 0.00 in0.0 mm 0.00 in0.0 mm
01:00 PM 42.4°F5.8°C 32.6°F0.3°C 68% 5.8 mph SW9.3 kmh SW 6.9 mph11.1 kmh 29.60 in1002.4 mb - 0.00 in0.0 mm 0.00 in0.0 mm
01:05 PM 42.5°F5.8°C 32.7°F0.4°C 68% 6.9 mph WNW11.1 kmh WNW 9.2 mph14.8 kmh 29.60 in1002.4 mb - 0.00 in0.0 mm 0.00 in0.0 mm
01:10 PM 42.5°F5.8°C 32.3°F0.2°C 67% 9.2 mph NW14.8 kmh NW 11.5 mph18.5 kmh 29.61 in1002.7 mb - 0.00 in0.0 mm 0.00 in0.0 mm
01:15 PM 42.7°F5.9°C 32.2°F0.1°C 66% 11.5 mph WSW18.5 kmh WSW 16.1 mph25.9 kmh 29.60 in1002.4 mb - 0.00 in0.0 mm 0.00 in0.0 mm
01:20 PM 43.0°F6.1°C 32.4°F0.2°C 66% 10.4 mph W16.7 kmh W 20.7 mph33.3 kmh 29.61 in1002.7 mb - 0.00 in0.0 mm 0.00 in0.0 mm
01:25 PM 43.2°F6.2°C 32.2°F0.1°C 65% 10.4 mph WSW16.7 kmh WSW 19.6 mph31.5 kmh 29.61 in1002.7 mb - 0.00 in0.0 mm 0.00 in0.0 mm
01:30 PM 43.2°F6.2°C 32.2°F0.1°C 65% 12.7 mph WNW20.4 kmh WNW 13.8 mph22.2 kmh 29.61 in1002.7 mb - 0.00 in0.0 mm 0.00 in0.0 mm
01:35 PM 43.5°F6.4°C 32.5°F0.3°C 65% 9.2 mph W14.8 kmh W 16.1 mph25.9 kmh 29.62 in1003.0 mb - 0.00 in0.0 mm 0.00 in0.0 mm
01:40 PM 43.3°F6.3°C 32.3°F0.2°C 65% 5.8 mph W9.3 kmh W 15.0 mph24.1 kmh 29.62 in1003.0 mb - 0.00 in0.0 mm 0.00 in0.0 mm
01:45 PM 43.2°F6.2°C 32.6°F0.3°C 66% 3.5 mph WNW5.6 kmh WNW 13.8 mph22.2 kmh 29.62 in1003.0 mb - 0.00 in0.0 mm 0.00 in0.0 mm
01:50 PM 42.8°F6.0°C 32.3°F0.2°C 66% 12.7 mph WSW20.4 kmh WSW 18.4 mph29.6 kmh 29.62 in1003.0 mb - 0.00 in0.0 mm 0.00 in0.0 mm
01:55 PM 42.7°F5.9°C 32.1°F0.1°C 66% 10.4 mph WSW16.7 kmh WSW 11.5 mph18.5 kmh 29.62 in1003.0 mb - 0.00 in0.0 mm 0.00 in0.0 mm
02:00 PM 42.8°F6.0°C 32.2°F0.1°C 66% 15.0 mph WSW24.1 kmh WSW 20.7 mph33.3 kmh 29.63 in1003.4 mb - 0.00 in0.0 mm 0.00 in0.0 mm
02:05 PM 42.8°F6.0°C 32.2°F0.1°C 66% 9.2 mph WSW14.8 kmh WSW 12.7 mph20.4 kmh 29.63 in1003.4 mb - 0.00 in0.0 mm 0.00 in0.0 mm
02:10 PM 43.2°F6.2°C 32.6°F0.3°C 66% 12.7 mph WSW20.4 kmh WSW 17.3 mph27.8 kmh 29.63 in1003.4 mb - 0.00 in0.0 mm 0.00 in0.0 mm
02:15 PM 43.3°F6.3°C 32.7°F0.4°C 66% 11.5 mph WSW18.5 kmh WSW 13.8 mph22.2 kmh 29.63 in1003.4 mb - 0.00 in0.0 mm 0.00 in0.0 mm
02:20 PM 43.5°F6.4°C 33.2°F0.7°C 67% 10.4 mph WSW16.7 kmh WSW 15.0 mph24.1 kmh 29.62 in1003.0 mb - 0.00 in0.0 mm 0.00 in0.0 mm
02:25 PM 43.8°F6.6°C 33.2°F0.7°C 66% 8.1 mph WNW13.0 kmh WNW 11.5 mph18.5 kmh 29.63 in1003.4 mb - 0.00 in0.0 mm 0.00 in0.0 mm
02:30 PM 44.1°F6.7°C 33.1°F0.6°C 65% 10.4 mph WNW16.7 kmh WNW 17.3 mph27.8 kmh 29.62 in1003.0 mb - 0.00 in0.0 mm 0.00 in0.0 mm
02:35 PM 44.3°F6.8°C 33.3°F0.7°C 65% 13.8 mph W22.2 kmh W 17.3 mph27.8 kmh 29.63 in1003.4 mb - 0.00 in0.0 mm 0.00 in0.0 mm
02:40 PM 44.4°F6.9°C 33.0°F0.6°C 64% 13.8 mph WSW22.2 kmh WSW 17.3 mph27.8 kmh 29.63 in1003.4 mb - 0.00 in0.0 mm 0.00 in0.0 mm
02:45 PM 43.9°F6.6°C 32.5°F0.3°C 64% 13.8 mph WSW22.2 kmh WSW 21.9 mph35.2 kmh 29.63 in1003.4 mb - 0.00 in0.0 mm 0.00 in0.0 mm
02:50 PM 43.7°F6.5°C 32.3°F0.2°C 64% 11.5 mph WSW18.5 kmh WSW 20.7 mph33.3 kmh 29.64 in1003.7 mb - 0.00 in0.0 mm 0.00 in0.0 mm
02:55 PM 43.6°F6.4°C 32.2°F0.1°C 64% 10.4 mph WSW16.7 kmh WSW 11.5 mph18.5 kmh 29.64 in1003.7 mb - 0.00 in0.0 mm 0.00 in0.0 mm
03:00 PM 43.6°F6.4°C 32.6°F0.3°C 65% 11.5 mph WSW18.5 kmh WSW 17.3 mph27.8 kmh 29.65 in1004.1 mb - 0.00 in0.0 mm 0.00 in0.0 mm
03:05 PM 43.5°F6.4°C 32.5°F0.3°C 65% 6.9 mph WSW11.1 kmh WSW 10.4 mph16.7 kmh 29.65 in1004.1 mb - 0.00 in0.0 mm 0.00 in0.0 mm
03:10 PM 43.4°F6.3°C 32.4°F0.2°C 65% 8.1 mph WSW13.0 kmh WSW 12.7 mph20.4 kmh 29.65 in1004.1 mb - 0.00 in0.0 mm 0.00 in0.0 mm
03:15 PM 43.3°F6.3°C 32.3°F0.2°C 65% 2.3 mph WSW3.7 kmh WSW 8.1 mph13.0 kmh 29.65 in1004.1 mb - 0.00 in0.0 mm 0.00 in0.0 mm
03:20 PM 43.3°F6.3°C 31.9°F-0.1°C 64% 1.2 mph N1.9 kmh N 3.5 mph5.6 kmh 29.65 in1004.1 mb - 0.00 in0.0 mm 0.00 in0.0 mm
03:25 PM 43.4°F6.3°C 32.0°F0.0°C 64% 2.3 mph WNW3.7 kmh WNW 3.5 mph5.6 kmh 29.65 in1004.1 mb - 0.00 in0.0 mm 0.00 in0.0 mm
03:30 PM 43.6°F6.4°C 31.8°F-0.1°C 63% 9.2 mph NW14.8 kmh NW 12.7 mph20.4 kmh 29.64 in1003.7 mb - 0.00 in0.0 mm 0.00 in0.0 mm
03:35 PM 43.5°F6.4°C 31.7°F-0.2°C 63% 9.2 mph WNW14.8 kmh WNW 16.1 mph25.9 kmh 29.64 in1003.7 mb - 0.00 in0.0 mm 0.00 in0.0 mm
03:40 PM 43.3°F6.3°C 31.5°F-0.3°C 63% 9.2 mph W14.8 kmh W 18.4 mph29.6 kmh 29.64 in1003.7 mb - 0.00 in0.0 mm 0.00 in0.0 mm
03:45 PM 43.0°F6.1°C 31.7°F-0.2°C 64% 11.5 mph WSW18.5 kmh WSW 19.6 mph31.5 kmh 29.64 in1003.7 mb - 0.00 in0.0 mm 0.00 in0.0 mm
03:50 PM 42.8°F6.0°C 31.5°F-0.3°C 64% 12.7 mph WSW20.4 kmh WSW 19.6 mph31.5 kmh 29.64 in1003.7 mb - 0.00 in0.0 mm 0.00 in0.0 mm
03:55 PM 42.7°F5.9°C 31.7°F-0.2°C 65% 11.5 mph W18.5 kmh W 15.0 mph24.1 kmh 29.65 in1004.1 mb - 0.00 in0.0 mm 0.00 in0.0 mm
04:00 PM 42.5°F5.8°C 31.6°F-0.2°C 65% 10.4 mph W16.7 kmh W 23.0 mph37.0 kmh 29.65 in1004.1 mb - 0.00 in0.0 mm 0.00 in0.0 mm
04:05 PM 42.5°F5.8°C 31.6°F-0.2°C 65% 9.2 mph W14.8 kmh W 19.6 mph31.5 kmh 29.65 in1004.1 mb - 0.00 in0.0 mm 0.00 in0.0 mm
04:10 PM 42.4°F5.8°C 31.5°F-0.3°C 65% 12.7 mph WNW20.4 kmh WNW 16.1 mph25.9 kmh 29.66 in1004.4 mb - 0.00 in0.0 mm 0.00 in0.0 mm
04:15 PM 42.3°F5.7°C 31.4°F-0.3°C 65% 10.4 mph WNW16.7 kmh WNW 19.6 mph31.5 kmh 29.66 in1004.4 mb - 0.00 in0.0 mm 0.00 in0.0 mm
04:20 PM 42.3°F5.7°C 31.0°F-0.6°C 64% 11.5 mph WNW18.5 kmh WNW 18.4 mph29.6 kmh 29.65 in1004.1 mb - 0.00 in0.0 mm 0.00 in0.0 mm
04:25 PM 42.1°F5.6°C 31.2°F-0.4°C 65% 10.4 mph WNW16.7 kmh WNW 16.1 mph25.9 kmh 29.66 in1004.4 mb - 0.00 in0.0 mm 0.00 in0.0 mm
04:30 PM 42.1°F5.6°C 30.8°F-0.7°C 64% 15.0 mph W24.1 kmh W 24.2 mph38.9 kmh 29.66 in1004.4 mb - 0.00 in0.0 mm 0.00 in0.0 mm
04:35 PM 42.2°F5.7°C 30.9°F-0.6°C 64% 13.8 mph W22.2 kmh W 24.2 mph38.9 kmh 29.66 in1004.4 mb - 0.00 in0.0 mm 0.00 in0.0 mm
04:40 PM 42.1°F5.6°C 30.8°F-0.7°C 64% 12.7 mph W20.4 kmh W 19.6 mph31.5 kmh 29.66 in1004.4 mb - 0.00 in0.0 mm 0.00 in0.0 mm
04:45 PM 41.9°F5.5°C 31.0°F-0.6°C 65% 10.4 mph W16.7 kmh W 16.1 mph25.9 kmh 29.67 in1004.7 mb - 0.00 in0.0 mm 0.00 in0.0 mm
04:50 PM 41.8°F5.4°C 31.2°F-0.4°C 66% 13.8 mph W22.2 kmh W 21.9 mph35.2 kmh 29.66 in1004.4 mb - 0.00 in0.0 mm 0.00 in0.0 mm
04:55 PM 41.8°F5.4°C 31.3°F-0.4°C 66% 16.1 mph WSW25.9 kmh WSW 25.3 mph40.7 kmh 29.66 in1004.4 mb - 0.00 in0.0 mm 0.00 in0.0 mm
05:00 PM 41.8°F5.4°C 31.3°F-0.4°C 66% 16.1 mph WSW25.9 kmh WSW 25.3 mph40.7 kmh 29.67 in1004.7 mb - 0.00 in0.0 mm 0.00 in0.0 mm
05:05 PM 41.8°F5.4°C 31.3°F-0.4°C 66% 13.8 mph W22.2 kmh W 19.6 mph31.5 kmh 29.67 in1004.7 mb - 0.00 in0.0 mm 0.00 in0.0 mm
05:10 PM 41.8°F5.4°C 31.3°F-0.4°C 66% 12.7 mph W20.4 kmh W 19.6 mph31.5 kmh 29.67 in1004.7 mb - 0.00 in0.0 mm 0.00 in0.0 mm
05:15 PM 41.8°F5.4°C 31.3°F-0.4°C 66% 10.4 mph NW16.7 kmh NW 12.7 mph20.4 kmh 29.67 in1004.7 mb - 0.00 in0.0 mm 0.00 in0.0 mm
05:20 PM 41.6°F5.3°C 31.5°F-0.3°C 67% 3.5 mph NW5.6 kmh NW 10.4 mph16.7 kmh 29.68 in1005.1 mb - 0.00 in0.0 mm 0.00 in0.0 mm
05:25 PM 41.6°F5.3°C 31.4°F-0.3°C 67% 5.8 mph NW9.3 kmh NW 11.5 mph18.5 kmh 29.68 in1005.1 mb - 0.00 in0.0 mm 0.00 in0.0 mm
05:30 PM 41.7°F5.4°C 31.5°F-0.3°C 67% 10.4 mph WNW16.7 kmh WNW 19.6 mph31.5 kmh 29.68 in1005.1 mb - 0.00 in0.0 mm 0.00 in0.0 mm
05:35 PM 41.8°F5.4°C 31.6°F-0.2°C 67% 9.2 mph W14.8 kmh W 13.8 mph22.2 kmh 29.69 in1005.4 mb - 0.00 in0.0 mm 0.00 in0.0 mm
05:40 PM 41.9°F5.5°C 31.7°F-0.2°C 67% 10.4 mph W16.7 kmh W 17.3 mph27.8 kmh 29.69 in1005.4 mb - 0.00 in0.0 mm 0.00 in0.0 mm
05:45 PM 41.8°F5.4°C 31.6°F-0.2°C 67% 11.5 mph W18.5 kmh W 18.4 mph29.6 kmh 29.70 in1005.8 mb - 0.00 in0.0 mm 0.00 in0.0 mm
05:50 PM 41.9°F5.5°C 31.7°F-0.2°C 67% 8.1 mph WNW13.0 kmh WNW 12.7 mph20.4 kmh 29.71 in1006.1 mb - 0.00 in0.0 mm 0.00 in0.0 mm
05:55 PM 41.8°F5.4°C 31.6°F-0.2°C 67% 9.2 mph WSW14.8 kmh WSW 19.6 mph31.5 kmh 29.70 in1005.8 mb - 0.00 in0.0 mm 0.00 in0.0 mm
06:00 PM 41.8°F5.4°C 32.0°F0.0°C 68% 11.5 mph WSW18.5 kmh WSW 18.4 mph29.6 kmh 29.70 in1005.8 mb - 0.00 in0.0 mm 0.00 in0.0 mm
06:05 PM 41.7°F5.4°C 31.9°F-0.1°C 68% 13.8 mph W22.2 kmh W 18.4 mph29.6 kmh 29.70 in1005.8 mb - 0.00 in0.0 mm 0.00 in0.0 mm
06:10 PM 41.6°F5.3°C 31.8°F-0.1°C 68% 10.4 mph WNW16.7 kmh WNW 15.0 mph24.1 kmh 29.70 in1005.8 mb - 0.00 in0.0 mm 0.00 in0.0 mm
06:15 PM 41.5°F5.3°C 31.7°F-0.2°C 68% 9.2 mph WNW14.8 kmh WNW 19.6 mph31.5 kmh 29.71 in1006.1 mb - 0.00 in0.0 mm 0.00 in0.0 mm
06:20 PM 41.6°F5.3°C 31.8°F-0.1°C 68% 9.2 mph WNW14.8 kmh WNW 16.1 mph25.9 kmh 29.71 in1006.1 mb - 0.00 in0.0 mm 0.00 in0.0 mm
06:25 PM 41.5°F5.3°C 31.7°F-0.2°C 68% 13.8 mph WNW22.2 kmh WNW 25.3 mph40.7 kmh 29.71 in1006.1 mb - 0.00 in0.0 mm 0.00 in0.0 mm
06:30 PM 41.5°F5.3°C 32.1°F0.1°C 69% 8.1 mph W13.0 kmh W 20.7 mph33.3 kmh 29.71 in1006.1 mb - 0.00 in0.0 mm 0.00 in0.0 mm
06:35 PM 41.5°F5.3°C 32.1°F0.1°C 69% 15.0 mph W24.1 kmh W 21.9 mph35.2 kmh 29.72 in1006.4 mb - 0.00 in0.0 mm 0.00 in0.0 mm
06:40 PM 41.7°F5.4°C 31.9°F-0.1°C 68% 15.0 mph W24.1 kmh W 19.6 mph31.5 kmh 29.72 in1006.4 mb - 0.00 in0.0 mm 0.00 in0.0 mm
06:45 PM 41.7°F5.4°C 32.3°F0.2°C 69% 12.7 mph WNW20.4 kmh WNW 18.4 mph29.6 kmh 29.72 in1006.4 mb - 0.00 in0.0 mm 0.00 in0.0 mm
06:50 PM 41.7°F5.4°C 32.2°F0.1°C 69% 12.7 mph WSW20.4 kmh WSW 19.6 mph31.5 kmh 29.72 in1006.4 mb - 0.00 in0.0 mm 0.00 in0.0 mm
06:55 PM 41.6°F5.3°C 32.5°F0.3°C 70% 16.1 mph W25.9 kmh W 25.3 mph40.7 kmh 29.71 in1006.1 mb - 0.00 in0.0 mm 0.00 in0.0 mm
07:00 PM 41.6°F5.3°C 32.5°F0.3°C 70% 10.4 mph NW16.7 kmh NW 16.1 mph25.9 kmh 29.72 in1006.4 mb - 0.00 in0.0 mm 0.00 in0.0 mm
07:05 PM 41.7°F5.4°C 32.3°F0.2°C 69% 13.8 mph W22.2 kmh W 20.7 mph33.3 kmh 29.73 in1006.8 mb - 0.00 in0.0 mm 0.00 in0.0 mm
07:10 PM 41.9°F5.5°C 32.5°F0.3°C 69% 13.8 mph W22.2 kmh W 19.6 mph31.5 kmh 29.73 in1006.8 mb - 0.00 in0.0 mm 0.00 in0.0 mm
07:15 PM 42.1°F5.6°C 32.3°F0.2°C 68% 12.7 mph W20.4 kmh W 18.4 mph29.6 kmh 29.73 in1006.8 mb - 0.00 in0.0 mm 0.00 in0.0 mm
07:20 PM 42.2°F5.7°C 32.0°F0.0°C 67% 10.4 mph W16.7 kmh W 16.1 mph25.9 kmh 29.73 in1006.8 mb - 0.00 in0.0 mm 0.00 in0.0 mm
07:25 PM 42.2°F5.7°C 32.3°F0.2°C 68% 11.5 mph W18.5 kmh W 16.1 mph25.9 kmh 29.73 in1006.8 mb - 0.00 in0.0 mm 0.00 in0.0 mm
07:30 PM 42.1°F5.6°C 32.3°F0.2°C 68% 15.0 mph W24.1 kmh W 17.3 mph27.8 kmh 29.74 in1007.1 mb - 0.00 in0.0 mm 0.00 in0.0 mm
07:35 PM 42.0°F5.6°C 32.5°F0.3°C 69% 11.5 mph W18.5 kmh W 17.3 mph27.8 kmh 29.74 in1007.1 mb - 0.00 in0.0 mm 0.00 in0.0 mm
07:40 PM 41.9°F5.5°C 32.4°F0.2°C 69% 11.5 mph W18.5 kmh W 17.3 mph27.8 kmh 29.74 in1007.1 mb - 0.00 in0.0 mm 0.00 in0.0 mm
07:45 PM 41.7°F5.4°C 32.7°F0.4°C 70% 10.4 mph WSW16.7 kmh WSW 15.0 mph24.1 kmh 29.74 in1007.1 mb - 0.00 in0.0 mm 0.00 in0.0 mm
07:50 PM 41.7°F5.4°C 32.6°F0.3°C 70% 8.1 mph W13.0 kmh W 10.4 mph16.7 kmh 29.75 in1007.5 mb - 0.00 in0.0 mm 0.00 in0.0 mm
07:55 PM 41.6°F5.3°C 32.6°F0.3°C 70% 11.5 mph WSW18.5 kmh WSW 12.7 mph20.4 kmh 29.75 in1007.5 mb - 0.00 in0.0 mm 0.00 in0.0 mm
08:00 PM 41.6°F5.3°C 32.5°F0.3°C 70% 10.4 mph WSW16.7 kmh WSW 12.7 mph20.4 kmh 29.75 in1007.5 mb - 0.00 in0.0 mm 0.00 in0.0 mm
08:05 PM 41.4°F5.2°C 32.7°F0.4°C 71% 9.2 mph WSW14.8 kmh WSW 13.8 mph22.2 kmh 29.75 in1007.5 mb - 0.00 in0.0 mm 0.00 in0.0 mm
08:10 PM 41.2°F5.1°C 32.5°F0.3°C 71% 10.4 mph WSW16.7 kmh WSW 13.8 mph22.2 kmh 29.75 in1007.5 mb - 0.00 in0.0 mm 0.00 in0.0 mm
08:15 PM 41.2°F5.1°C 32.5°F0.3°C 71% 8.1 mph W13.0 kmh W 10.4 mph16.7 kmh 29.76 in1007.8 mb - 0.00 in0.0 mm 0.00 in0.0 mm
08:20 PM 41.1°F5.1°C 32.8°F0.4°C 72% 8.1 mph WSW13.0 kmh WSW 13.8 mph22.2 kmh 29.75 in1007.5 mb - 0.00 in0.0 mm 0.00 in0.0 mm
08:25 PM 41.0°F5.0°C 32.7°F0.4°C 72% 10.4 mph WSW16.7 kmh WSW 15.0 mph24.1 kmh 29.75 in1007.5 mb - 0.00 in0.0 mm 0.00 in0.0 mm
08:30 PM 41.1°F5.1°C 32.7°F0.4°C 72% 9.2 mph WSW14.8 kmh WSW 12.7 mph20.4 kmh 29.75 in1007.5 mb - 0.00 in0.0 mm 0.00 in0.0 mm
08:35 PM 41.0°F5.0°C 33.3°F0.7°C 74% 5.8 mph WNW9.3 kmh WNW 10.4 mph16.7 kmh 29.75 in1007.5 mb - 0.00 in0.0 mm 0.00 in0.0 mm
08:40 PM 40.9°F4.9°C 32.6°F0.3°C 72% 8.1 mph WSW13.0 kmh WSW 12.7 mph20.4 kmh 29.75 in1007.5 mb - 0.00 in0.0 mm 0.00 in0.0 mm
08:45 PM 40.9°F4.9°C 32.6°F0.3°C 72% 8.1 mph WSW13.0 kmh WSW 11.5 mph18.5 kmh 29.75 in1007.5 mb - 0.00 in0.0 mm 0.00 in0.0 mm
08:50 PM 40.8°F4.9°C 32.8°F0.4°C 73% 6.9 mph W11.1 kmh W 11.5 mph18.5 kmh 29.75 in1007.5 mb - 0.00 in0.0 mm 0.00 in0.0 mm
08:55 PM 40.5°F4.7°C 32.6°F0.3°C 73% 4.6 mph WNW7.4 kmh WNW 8.1 mph13.0 kmh 29.75 in1007.5 mb - 0.00 in0.0 mm 0.00 in0.0 mm
09:00 PM 40.7°F4.8°C 32.7°F0.4°C 73% 6.9 mph NW11.1 kmh NW 12.7 mph20.4 kmh 29.75 in1007.5 mb - 0.00 in0.0 mm 0.00 in0.0 mm
09:05 PM 41.2°F5.1°C 32.9°F0.5°C 72% 5.8 mph NW9.3 kmh NW 11.5 mph18.5 kmh 29.75 in1007.5 mb - 0.00 in0.0 mm 0.00 in0.0 mm
09:10 PM 41.3°F5.2°C 33.0°F0.6°C 72% 9.2 mph NW14.8 kmh NW 13.8 mph22.2 kmh 29.75 in1007.5 mb - 0.00 in0.0 mm 0.00 in0.0 mm
09:15 PM 41.4°F5.2°C 33.0°F0.6°C 72% 5.8 mph NW9.3 kmh NW 11.5 mph18.5 kmh 29.75 in1007.5 mb - 0.00 in0.0 mm 0.00 in0.0 mm
09:20 PM 41.3°F5.2°C 33.0°F0.6°C 72% 6.9 mph NW11.1 kmh NW 10.4 mph16.7 kmh 29.75 in1007.5 mb - 0.00 in0.0 mm 0.00 in0.0 mm
09:25 PM 41.1°F5.1°C 32.8°F0.4°C 72% 10.4 mph NW16.7 kmh NW 17.3 mph27.8 kmh 29.75 in1007.5 mb - 0.00 in0.0 mm 0.00 in0.0 mm
09:30 PM 41.3°F5.2°C 33.0°F0.6°C 72% 6.9 mph NW11.1 kmh NW 11.5 mph18.5 kmh 29.75 in1007.5 mb - 0.00 in0.0 mm 0.00 in0.0 mm
09:35 PM 41.4°F5.2°C 33.0°F0.6°C 72% 10.4 mph N16.7 kmh N 19.6 mph31.5 kmh 29.75 in1007.5 mb - 0.00 in0.0 mm 0.00 in0.0 mm
09:40 PM 41.6°F5.3°C 32.9°F0.5°C 71% 8.1 mph NW13.0 kmh NW 11.5 mph18.5 kmh 29.76 in1007.8 mb - 0.00 in0.0 mm 0.00 in0.0 mm
09:45 PM 41.6°F5.3°C 32.9°F0.5°C 71% 12.7 mph WNW20.4 kmh WNW 19.6 mph31.5 kmh 29.76 in1007.8 mb - 0.00 in0.0 mm 0.00 in0.0 mm
09:50 PM 41.7°F5.4°C 33.0°F0.6°C 71% 9.2 mph NW14.8 kmh NW 18.4 mph29.6 kmh 29.76 in1007.8 mb - 0.00 in0.0 mm 0.00 in0.0 mm
09:55 PM 41.7°F5.4°C 33.0°F0.6°C 71% 12.7 mph NW20.4 kmh NW 20.7 mph33.3 kmh 29.76 in1007.8 mb - 0.00 in0.0 mm 0.00 in0.0 mm
10:00 PM 41.6°F5.3°C 32.9°F0.5°C 71% 13.8 mph NW22.2 kmh NW 25.3 mph40.7 kmh 29.76 in1007.8 mb - 0.00 in0.0 mm 0.00 in0.0 mm
10:05 PM 41.8°F5.4°C 33.1°F0.6°C 71% 19.6 mph NNW31.5 kmh NNW 32.2 mph51.8 kmh 29.77 in1008.1 mb - 0.00 in0.0 mm 0.00 in0.0 mm
10:10 PM 41.9°F5.5°C 33.2°F0.7°C 71% 12.7 mph NW20.4 kmh NW 20.7 mph33.3 kmh 29.76 in1007.8 mb - 0.00 in0.0 mm 0.00 in0.0 mm
10:15 PM 41.9°F5.5°C 33.2°F0.7°C 71% 12.7 mph W20.4 kmh W 16.1 mph25.9 kmh 29.75 in1007.5 mb - 0.00 in0.0 mm 0.00 in0.0 mm
10:20 PM 42.0°F5.6°C 33.2°F0.7°C 71% 11.5 mph W18.5 kmh W 24.2 mph38.9 kmh 29.76 in1007.8 mb - 0.00 in0.0 mm 0.00 in0.0 mm
10:25 PM 42.0°F5.6°C 33.3°F0.7°C 71% 8.1 mph WNW13.0 kmh WNW 17.3 mph27.8 kmh 29.76 in1007.8 mb - 0.00 in0.0 mm 0.00 in0.0 mm
10:30 PM 41.9°F5.5°C 33.2°F0.7°C 71% 11.5 mph WNW18.5 kmh WNW 20.7 mph33.3 kmh 29.77 in1008.1 mb - 0.00 in0.0 mm 0.00 in0.0 mm
10:35 PM 41.8°F5.4°C 33.1°F0.6°C 71% 9.2 mph WNW14.8 kmh WNW 17.3 mph27.8 kmh 29.77 in1008.1 mb - 0.00 in0.0 mm 0.00 in0.0 mm
10:40 PM 41.8°F5.4°C 33.1°F0.6°C 71% 9.2 mph WNW14.8 kmh WNW 12.7 mph20.4 kmh 29.78 in1008.5 mb - 0.00 in0.0 mm 0.00 in0.0 mm
10:45 PM 42.0°F5.6°C 32.9°F0.5°C 70% 12.7 mph NNW20.4 kmh NNW 24.2 mph38.9 kmh 29.78 in1008.5 mb - 0.00 in0.0 mm 0.00 in0.0 mm
10:50 PM 42.0°F5.6°C 32.9°F0.5°C 70% 8.1 mph NW13.0 kmh NW 12.7 mph20.4 kmh 29.78 in1008.5 mb - 0.00 in0.0 mm 0.00 in0.0 mm
10:55 PM 41.8°F5.4°C 33.1°F0.6°C 71% 6.9 mph WNW11.1 kmh WNW 10.4 mph16.7 kmh 29.78 in1008.5 mb - 0.00 in0.0 mm 0.00 in0.0 mm
11:00 PM 41.7°F5.4°C 33.0°F0.6°C 71% 8.1 mph WNW13.0 kmh WNW 12.7 mph20.4 kmh 29.79 in1008.8 mb - 0.00 in0.0 mm 0.00 in0.0 mm
11:05 PM 41.7°F5.4°C 33.0°F0.6°C 71% 5.8 mph NW9.3 kmh NW 13.8 mph22.2 kmh 29.79 in1008.8 mb - 0.00 in0.0 mm 0.00 in0.0 mm
11:10 PM 41.6°F5.3°C 32.9°F0.5°C 71% 6.9 mph NW11.1 kmh NW 12.7 mph20.4 kmh 29.79 in1008.8 mb - 0.00 in0.0 mm 0.00 in0.0 mm
11:15 PM 41.2°F5.1°C 32.5°F0.3°C 71% 8.1 mph W13.0 kmh W 12.7 mph20.4 kmh 29.79 in1008.8 mb - 0.00 in0.0 mm 0.00 in0.0 mm
11:20 PM 40.7°F4.8°C 32.7°F0.4°C 73% 6.9 mph W11.1 kmh W 11.5 mph18.5 kmh 29.79 in1008.8 mb - 0.00 in0.0 mm 0.00 in0.0 mm
11:25 PM 40.4°F4.7°C 32.4°F0.2°C 73% 6.9 mph W11.1 kmh W 11.5 mph18.5 kmh 29.79 in1008.8 mb - 0.00 in0.0 mm 0.00 in0.0 mm
11:30 PM 40.6°F4.8°C 32.6°F0.3°C 73% 9.2 mph NW14.8 kmh NW 11.5 mph18.5 kmh 29.79 in1008.8 mb - 0.00 in0.0 mm 0.00 in0.0 mm
11:35 PM 40.6°F4.8°C 32.6°F0.3°C 73% 5.8 mph WSW9.3 kmh WSW 15.0 mph24.1 kmh 29.80 in1009.1 mb - 0.00 in0.0 mm 0.00 in0.0 mm
11:40 PM 41.0°F5.0°C 32.6°F0.3°C 72% 10.4 mph W16.7 kmh W 17.3 mph27.8 kmh 29.80 in1009.1 mb - 0.00 in0.0 mm 0.00 in0.0 mm
11:45 PM 41.3°F5.2°C 32.6°F0.3°C 71% 6.9 mph NW11.1 kmh NW 10.4 mph16.7 kmh 29.80 in1009.1 mb - 0.00 in0.0 mm 0.00 in0.0 mm
11:50 PM 41.3°F5.2°C 32.2°F0.1°C 70% 5.8 mph N9.3 kmh N 8.1 mph13.0 kmh 29.81 in1009.5 mb - 0.00 in0.0 mm 0.00 in0.0 mm
11:55 PM 41.5°F5.3°C 32.1°F0.1°C 69% 9.2 mph WNW14.8 kmh WNW 12.7 mph20.4 kmh 29.81 in1009.5 mb - 0.00 in0.0 mm 0.00 in0.0 mm